createdAt,value
2023-03-08T00:02:20.279Z,57281.71
2023-03-08T00:04:55.497Z,57267.95
2023-03-08T00:07:26.236Z,57244.65
2023-03-08T00:09:57.286Z,57289.13
2023-03-08T00:12:28.649Z,57267.95
2023-03-08T00:14:59.154Z,57293.36
2023-03-08T00:17:30.143Z,57293.36
2023-03-08T00:20:00.685Z,57283.83
2023-03-08T00:22:33.222Z,57272.18
2023-03-08T00:25:05.547Z,57301.84
2023-03-08T00:27:38.256Z,57301.84
2023-03-08T00:30:13.056Z,57281.71
2023-03-08T00:32:45.583Z,57258.41
2023-03-08T00:35:15.965Z,57258.41
2023-03-08T00:37:47.306Z,57290.18
2023-03-08T00:40:17.780Z,57273.24
2023-03-08T00:42:48.232Z,57279.59
2023-03-08T00:45:18.711Z,57244.65
2023-03-08T00:47:49.182Z,57272.18
2023-03-08T00:50:19.537Z,57278.54
2023-03-08T00:52:50.087Z,57280.66
2023-03-08T00:55:20.443Z,57262.65
2023-03-08T00:57:51.502Z,57293.36
2023-03-08T01:00:22.675Z,57280.66
2023-03-08T01:02:54.044Z,57280.66
2023-03-08T01:05:25.109Z,57295.48
2023-03-08T01:07:56.488Z,57295.48
2023-03-08T01:10:26.854Z,57285.95
2023-03-08T01:12:57.853Z,57285.95
2023-03-08T01:15:28.925Z,57285.95
2023-03-08T01:17:59.184Z,57299.72
2023-03-08T01:20:30.305Z,57302.89
2023-03-08T01:23:00.720Z,57306.07
2023-03-08T01:25:31.507Z,57298.66
2023-03-08T01:28:01.874Z,57287.01
2023-03-08T01:30:32.413Z,57290.18
2023-03-08T01:33:04.253Z,57302.89
2023-03-08T01:35:35.341Z,57302.89
2023-03-08T01:38:06.539Z,57287.01
2023-03-08T01:40:37.525Z,57299.72
2023-03-08T01:43:44.070Z,57319.84
2023-03-08T01:46:32.361Z,57295.48
2023-03-08T01:49:06.287Z,57284.89
2023-03-08T01:51:59.200Z,57289.13
2023-03-08T01:57:21.280Z,57300.78
2023-03-08T02:00:13.945Z,57295.48
2023-03-08T02:05:44.281Z,57288.07
2023-03-08T02:08:14.715Z,57309.25
2023-03-08T02:10:45.440Z,57295.48
2023-03-08T02:13:16.704Z,57297.60
2023-03-08T02:15:47.951Z,57315.61
2023-03-08T02:18:18.271Z,57294.42
2023-03-08T02:20:49.329Z,57301.84
2023-03-08T02:23:22.976Z,57316.66
2023-03-08T02:26:01.793Z,57312.43
2023-03-08T02:28:33.675Z,57298.66
2023-03-08T02:31:04.128Z,57312.43
2023-03-08T02:33:36.322Z,57325.14
2023-03-08T02:36:08.404Z,57325.14
2023-03-08T02:38:39.373Z,57321.96
2023-03-08T02:41:09.797Z,57321.96
2023-03-08T02:43:40.606Z,57323.02
2023-03-08T02:46:15.464Z,57323.02
2023-03-08T02:48:45.945Z,57320.90
2023-03-08T02:51:17.391Z,57313.48
2023-03-08T02:53:47.771Z,57288.07
2023-03-08T02:56:17.949Z,57288.07
2023-03-08T02:58:49.035Z,57321.96
2023-03-08T03:01:19.502Z,57309.25
2023-03-08T03:03:50.188Z,57307.13
2023-03-08T03:06:21.581Z,57289.13
2023-03-08T03:08:51.967Z,57267.95
2023-03-08T03:11:24.013Z,57323.02
2023-03-08T03:13:57.803Z,57317.72
2023-03-08T03:16:29.088Z,57317.72
2023-03-08T03:18:59.482Z,57265.83
2023-03-08T03:21:30.006Z,57329.37
2023-03-08T03:24:00.525Z,57299.72
2023-03-08T03:26:31.973Z,57319.84
2023-03-08T03:29:02.518Z,57299.72
2023-03-08T03:31:33.013Z,57299.72
2023-03-08T03:34:03.640Z,57279.59
2023-03-08T03:36:34.147Z,57280.66
2023-03-08T03:39:05.009Z,57313.48
2023-03-08T03:41:36.483Z,57305.01
2023-03-08T03:44:10.008Z,57294.42
2023-03-08T03:46:40.570Z,57303.95
2023-03-08T03:49:12.104Z,57302.89
2023-03-08T03:51:42.626Z,57302.89
2023-03-08T03:54:13.818Z,57302.89
2023-03-08T03:56:44.494Z,57310.31
2023-03-08T03:59:15.074Z,57319.84
2023-03-08T04:01:46.015Z,57298.66
2023-03-08T04:04:16.776Z,57298.66
2023-03-08T04:06:47.161Z,57314.55
2023-03-08T04:09:19.001Z,57319.84
2023-03-08T04:11:49.739Z,57308.19
2023-03-08T04:14:22.937Z,57308.19
2023-03-08T04:16:55.067Z,57314.55
2023-03-08T04:19:26.216Z,57303.95
2023-03-08T04:21:56.714Z,57295.48
2023-03-08T04:24:27.834Z,57295.48
2023-03-08T04:26:58.329Z,57299.72
2023-03-08T04:29:29.145Z,57333.61
2023-03-08T04:32:03.088Z,57333.61
2023-03-08T04:34:35.402Z,57280.66
2023-03-08T04:37:11.456Z,57327.25
2023-03-08T04:39:42.137Z,57314.55
2023-03-08T04:42:12.494Z,57289.13
2023-03-08T04:44:45.696Z,57295.48
2023-03-08T04:47:17.626Z,57295.48
2023-03-08T04:49:48.472Z,57320.90
2023-03-08T04:52:19.029Z,57299.72
2023-03-08T04:54:51.159Z,57332.55
2023-03-08T04:57:22.244Z,57310.31
2023-03-08T04:59:52.858Z,57315.61
2023-03-08T05:02:24.202Z,57315.61
2023-03-08T05:04:54.957Z,57342.08
2023-03-08T05:07:25.936Z,57307.13
2023-03-08T05:09:56.466Z,57330.43
2023-03-08T05:12:29.915Z,57313.48
2023-03-08T05:15:00.882Z,57320.90
2023-03-08T05:17:34.408Z,57320.90
2023-03-08T05:20:06.551Z,57334.67
2023-03-08T05:22:56.594Z,57337.84
2023-03-08T05:25:14.472Z,57369.62
2023-03-08T05:27:45.855Z,57345.26
2023-03-08T05:30:16.728Z,57332.55
2023-03-08T05:32:47.646Z,57308.19
2023-03-08T05:35:18.181Z,57308.19
2023-03-08T05:37:48.700Z,57298.66
2023-03-08T05:40:19.506Z,57311.37
2023-03-08T05:42:50.082Z,57320.90
2023-03-08T05:45:20.587Z,57325.14
2023-03-08T05:47:51.040Z,57329.37
2023-03-08T05:50:21.525Z,57336.79
2023-03-08T05:52:52.190Z,57321.96
2023-03-08T05:55:24.466Z,57306.07
2023-03-08T05:57:55.284Z,57320.90
2023-03-08T06:00:26.129Z,57328.31
2023-03-08T06:03:00.732Z,57329.37
2023-03-08T06:05:33.051Z,57319.84
2023-03-08T06:08:04.092Z,57321.96
2023-03-08T06:10:35.185Z,57321.96
2023-03-08T06:13:05.444Z,57318.78
2023-03-08T06:15:36.249Z,57326.20
2023-03-08T06:18:08.019Z,57341.02
2023-03-08T06:20:38.838Z,57319.84
2023-03-08T06:23:09.268Z,57311.37
2023-03-08T06:25:40.238Z,57311.37
2023-03-08T06:28:10.586Z,57326.20
2023-03-08T06:30:41.712Z,57323.02
2023-03-08T06:33:13.083Z,57345.26
2023-03-08T06:35:44.085Z,57345.26
2023-03-08T06:41:06.957Z,57335.73
2023-03-08T06:43:39.141Z,57335.73
2023-03-08T06:46:12.120Z,57332.55
2023-03-08T06:49:05.737Z,57332.55
2023-03-08T06:51:36.658Z,57311.37
2023-03-08T06:54:13.823Z,57337.84
2023-03-08T06:56:48.384Z,57336.79
2023-03-08T06:59:18.824Z,57325.14
2023-03-08T07:01:49.865Z,57293.36
2023-03-08T07:04:20.414Z,57301.84
2023-03-08T07:06:51.446Z,57300.78
2023-03-08T07:09:22.325Z,57297.60
2023-03-08T07:11:52.751Z,57297.60
2023-03-08T07:14:23.558Z,57324.07
2023-03-08T07:16:54.601Z,57324.07
2023-03-08T07:19:25.773Z,57289.13
2023-03-08T07:21:56.175Z,57305.01
2023-03-08T07:24:26.695Z,57305.01
2023-03-08T07:26:57.472Z,57315.61
2023-03-08T07:29:28.674Z,57307.13
2023-03-08T07:32:02.881Z,57293.36
2023-03-08T07:34:33.573Z,57293.36
2023-03-08T07:37:04.546Z,57308.19
2023-03-08T07:39:35.044Z,57266.89
2023-03-08T07:42:06.132Z,57289.13
2023-03-08T07:44:39.160Z,57277.48
2023-03-08T07:47:09.971Z,57279.59
2023-03-08T07:49:41.128Z,57279.59
2023-03-08T07:52:11.662Z,57273.24
2023-03-08T07:54:43.896Z,57273.24
2023-03-08T07:57:15.277Z,57243.59
2023-03-08T07:59:50.279Z,57282.77
2023-03-08T08:02:22.531Z,57239.35
2023-03-08T08:21:42.306Z,57284.89
2023-03-08T08:24:12.786Z,57281.71
2023-03-08T08:26:51.013Z,57275.36
2023-03-08T08:30:12.777Z,57318.78
2023-03-08T08:32:37.647Z,57279.59
2023-03-08T08:35:45.261Z,57279.59
2023-03-08T08:38:13.927Z,57311.37
2023-03-08T08:40:53.162Z,57284.89
2023-03-08T08:43:24.428Z,57284.89
2023-03-08T08:45:57.393Z,57295.48
2023-03-08T08:48:28.059Z,57291.25
2023-03-08T08:50:59.459Z,57305.01
2023-03-08T08:53:29.901Z,57285.95
2023-03-08T08:56:02.418Z,57283.83
2023-03-08T08:58:34.586Z,57283.83
2023-03-08T09:01:09.460Z,57308.19
2023-03-08T09:03:40.085Z,57318.78
2023-03-08T09:06:12.779Z,57318.78
2023-03-08T09:08:43.926Z,57288.07
2023-03-08T09:11:14.498Z,57288.07
2023-03-08T09:13:45.588Z,57359.03
2023-03-08T09:16:24.785Z,57335.73
2023-03-08T09:18:56.390Z,57335.73
2023-03-08T09:21:27.628Z,57333.61
2023-03-08T09:24:03.141Z,57301.84
2023-03-08T09:26:35.645Z,57306.07
2023-03-08T09:29:10.513Z,57338.90
2023-03-08T09:31:41.193Z,57338.90
2023-03-08T09:34:14.630Z,57348.43
2023-03-08T09:36:45.263Z,57359.03
2023-03-08T09:39:15.688Z,57384.44
2023-03-08T09:41:51.866Z,57384.44
2023-03-08T09:44:46.088Z,57414.10
2023-03-08T09:47:32.158Z,57374.91
2023-03-08T09:50:06.902Z,57374.91
2023-03-08T09:52:55.290Z,57377.03
2023-03-08T09:55:31.826Z,57413.04
2023-03-08T09:58:21.772Z,57416.21
2023-03-08T10:00:52.601Z,57416.21
2023-03-08T10:03:36.486Z,57374.91
2023-03-08T10:06:10.228Z,57402.45
2023-03-08T10:08:53.044Z,57403.51
2023-03-08T10:11:36.438Z,57417.27
2023-03-08T10:14:12.912Z,57382.32
2023-03-08T10:16:46.876Z,57382.32
2023-03-08T10:19:20.206Z,57408.80
2023-03-08T10:22:25.640Z,57389.74
2023-03-08T10:25:15.836Z,57389.74
2023-03-08T10:27:48.540Z,57411.98
2023-03-08T10:30:22.096Z,57425.75
2023-03-08T10:32:56.525Z,57425.75
2023-03-08T10:35:36.122Z,57418.33
2023-03-08T10:38:09.416Z,57418.33
2023-03-08T10:40:40.038Z,57433.16
2023-03-08T10:43:15.986Z,57433.16
2023-03-08T10:45:48.577Z,57415.16
2023-03-08T10:48:21.722Z,57420.45
2023-03-08T10:51:01.268Z,57407.74
2023-03-08T10:53:33.034Z,57407.74
2023-03-08T10:56:04.037Z,57377.03
2023-03-08T10:58:40.412Z,57391.86
2023-03-08T11:01:31.471Z,57435.28
2023-03-08T11:04:10.675Z,57458.58
2023-03-08T11:06:41.221Z,57451.16
2023-03-08T11:12:26.731Z,57451.16
2023-03-08T11:15:00.547Z,57460.70
2023-03-08T11:17:36.789Z,57439.52
2023-03-08T11:20:25.871Z,57439.52
2023-03-08T11:23:17.965Z,57431.04
2023-03-08T11:25:57.326Z,57431.04
2023-03-08T11:28:50.829Z,57482.94
2023-03-08T11:31:32.802Z,57442.69
2023-03-08T11:34:25.296Z,57452.23
2023-03-08T11:37:06.502Z,57452.23
2023-03-08T11:39:39.894Z,57491.41
2023-03-08T11:42:24.746Z,57477.64
2023-03-08T11:45:38.806Z,57443.75
2023-03-08T11:48:26.623Z,57443.75
2023-03-08T11:51:08.853Z,57435.28
2023-03-08T11:54:01.518Z,57435.28
2023-03-08T11:56:47.396Z,57449.05
2023-03-08T11:59:42.455Z,57471.29
2023-03-08T12:02:27.997Z,57432.10
2023-03-08T12:05:10.310Z,57418.33
2023-03-08T12:07:53.576Z,57441.63
2023-03-08T12:10:31.076Z,57441.63
2023-03-08T12:13:08.720Z,57449.05
2023-03-08T12:15:44.937Z,57441.63
2023-03-08T12:18:24.425Z,57480.82
2023-03-08T12:20:57.748Z,57450.11
2023-03-08T12:23:57.306Z,57449.05
2023-03-08T12:26:31.041Z,57449.05
2023-03-08T12:29:04.672Z,57467.05
2023-03-08T12:31:46.566Z,57454.34
2023-03-08T12:34:38.580Z,57454.34
2023-03-08T12:37:24.730Z,57477.64
2023-03-08T12:40:01.435Z,57446.93
2023-03-08T12:42:35.410Z,57514.71
2023-03-08T12:45:21.841Z,57458.58
2023-03-08T12:48:07.519Z,57458.58
2023-03-08T12:50:47.326Z,57479.76
2023-03-08T12:53:37.455Z,57463.87
2023-03-08T12:56:34.708Z,57449.05
2023-03-08T12:59:13.687Z,57450.11
2023-03-08T13:01:57.412Z,57450.11
2023-03-08T13:04:41.426Z,57415.16
2023-03-08T13:07:12.877Z,57415.16
2023-03-08T13:09:46.712Z,57408.80
2023-03-08T13:12:20.835Z,57407.74
2023-03-08T13:15:13.115Z,57407.74
2023-03-08T13:18:06.366Z,57410.92
2023-03-08T13:20:52.420Z,57410.92
2023-03-08T13:23:34.350Z,57373.85
2023-03-08T13:26:11.339Z,57402.45
2023-03-08T13:28:48.017Z,57420.45
2023-03-08T13:31:19.773Z,57401.39
2023-03-08T13:34:00.514Z,57415.16
2023-03-08T13:36:33.074Z,57405.62
2023-03-08T13:39:06.255Z,57396.09
2023-03-08T13:41:42.626Z,57402.45
2023-03-08T13:44:26.903Z,57402.45
2023-03-08T13:47:00.467Z,57395.03
2023-03-08T13:49:36.500Z,57395.03
2023-03-08T13:52:10.038Z,57396.09
2023-03-08T13:54:44.257Z,57405.62
2023-03-08T13:57:30.006Z,57391.86
2023-03-08T14:00:02.650Z,57385.50
2023-03-08T14:02:33.692Z,57391.86
2023-03-08T14:05:22.150Z,57378.09
2023-03-08T14:08:06.462Z,57378.09
2023-03-08T14:10:43.258Z,57377.03
2023-03-08T14:13:32.067Z,57404.57
2023-03-08T14:16:05.933Z,57404.57
2023-03-08T14:18:40.082Z,57402.45
2023-03-08T14:21:22.054Z,57382.32
2023-03-08T14:24:01.320Z,57373.85
2023-03-08T14:26:34.664Z,57392.91
2023-03-08T14:29:20.499Z,57387.62
2023-03-08T14:32:12.746Z,57387.62
2023-03-08T14:34:48.705Z,57387.62
2023-03-08T14:37:24.640Z,57393.98
2023-03-08T14:39:58.819Z,57407.74
2023-03-08T14:42:32.128Z,57384.44
2023-03-08T14:45:08.338Z,57384.44
2023-03-08T14:47:43.622Z,57371.73
2023-03-08T14:50:25.128Z,57374.91
2023-03-08T14:52:58.055Z,57371.73
2023-03-08T14:55:35.251Z,57364.32
2023-03-08T14:58:12.205Z,57381.27
2023-03-08T15:00:54.327Z,57370.68
2023-03-08T15:03:33.839Z,57395.03
2023-03-08T15:06:09.694Z,57365.38
2023-03-08T15:08:45.014Z,57386.56
2023-03-08T15:11:16.256Z,57369.62
2023-03-08T15:13:48.152Z,57395.03
2023-03-08T15:16:19.404Z,57380.21
2023-03-08T15:18:50.751Z,57380.21
2023-03-08T15:21:24.141Z,57390.80
2023-03-08T15:23:55.727Z,57349.49
2023-03-08T15:26:31.346Z,57386.56
2023-03-08T15:29:02.950Z,57362.20
2023-03-08T15:31:36.447Z,57364.32
2023-03-08T15:34:06.794Z,57403.51
2023-03-08T15:36:38.079Z,57403.51
2023-03-08T15:39:15.503Z,57363.26
2023-03-08T15:41:50.799Z,57373.85
2023-03-08T15:44:21.475Z,57373.85
2023-03-08T15:46:54.886Z,57359.03
2023-03-08T15:49:26.447Z,57359.03
2023-03-08T15:51:58.111Z,57374.91
2023-03-08T15:54:28.796Z,57354.79
2023-03-08T15:57:02.189Z,57354.79
2023-03-08T15:59:34.449Z,57345.26
2023-03-08T16:02:08.634Z,57321.96
2023-03-08T16:04:39.712Z,57379.15
2023-03-08T16:07:18.967Z,57379.15
2023-03-08T16:09:50.656Z,57369.62
2023-03-08T16:12:25.745Z,57369.62
2023-03-08T16:14:57.058Z,57362.20
2023-03-08T16:17:31.975Z,57337.84
2023-03-08T16:20:05.516Z,57337.84
2023-03-08T16:22:36.504Z,57346.32
2023-03-08T16:25:12.427Z,57346.32
2023-03-08T16:27:43.256Z,57332.55
2023-03-08T16:30:14.411Z,57349.49
2023-03-08T16:32:48.302Z,57349.49
2023-03-08T16:35:18.799Z,57361.14
2023-03-08T16:37:54.145Z,57363.26
2023-03-08T16:40:33.726Z,57362.20
2023-03-08T16:43:04.609Z,57362.20
2023-03-08T16:45:38.157Z,57343.14
2023-03-08T16:48:09.459Z,57360.08
2023-03-08T16:50:40.017Z,57360.08
2023-03-08T16:53:10.567Z,57345.26
2023-03-08T16:55:42.144Z,57345.26
2023-03-08T16:58:12.705Z,57343.14
2023-03-08T17:00:43.345Z,57323.02
2023-03-08T17:03:16.394Z,57323.02
2023-03-08T17:05:47.451Z,57344.20
2023-03-08T17:08:22.245Z,57350.55
2023-03-08T17:10:53.239Z,57344.20
2023-03-08T17:13:27.348Z,57321.96
2023-03-08T17:15:58.513Z,57321.96
2023-03-08T17:18:29.665Z,57339.96
2023-03-08T17:21:02.843Z,57378.09
2023-03-08T17:23:33.992Z,57325.14
2023-03-08T17:26:07.069Z,57325.14
2023-03-08T17:28:42.058Z,57334.67
2023-03-08T17:31:14.977Z,57329.37
2023-03-08T17:33:46.233Z,57345.26
2023-03-08T17:36:23.319Z,57333.61
2023-03-08T17:38:55.584Z,57333.61
2023-03-08T17:41:26.874Z,57299.72
2023-03-08T17:43:57.869Z,57299.72
2023-03-08T17:46:28.741Z,57312.43
2023-03-08T17:48:59.196Z,57343.14
2023-03-08T17:51:37.282Z,57343.14
2023-03-08T17:54:09.682Z,57324.07
2023-03-08T17:56:41.924Z,57309.25
2023-03-08T17:59:18.360Z,57299.72
2023-03-08T18:01:49.299Z,57293.36
2023-03-08T18:04:20.151Z,57293.36
2023-03-08T18:06:51.756Z,57302.89
2023-03-08T18:09:22.555Z,57311.37
2023-03-08T18:11:53.916Z,57311.37
2023-03-08T18:14:37.813Z,57319.84
2023-03-08T18:17:06.115Z,57330.43
2023-03-08T18:19:36.966Z,57311.37
2023-03-08T18:22:08.947Z,57302.89
2023-03-08T18:24:40.276Z,57317.72
2023-03-08T18:27:15.744Z,57295.48
2023-03-08T18:29:47.135Z,57292.30
2023-03-08T18:32:19.753Z,57320.90
2023-03-08T18:34:50.377Z,57295.48
2023-03-08T18:37:22.054Z,57295.48
2023-03-08T18:39:55.882Z,57339.96
2023-03-08T18:42:27.111Z,57306.07
2023-03-08T18:45:01.295Z,57306.07
2023-03-08T18:47:32.076Z,57253.12
2023-03-08T18:50:03.960Z,57302.89
2023-03-08T18:52:43.703Z,57302.89
2023-03-08T18:55:18.369Z,57318.78
2023-03-08T18:57:49.253Z,57306.07
2023-03-08T19:00:20.051Z,57324.07
2023-03-08T19:02:53.319Z,57314.55
2023-03-08T19:05:25.090Z,57311.37
2023-03-08T19:07:57.658Z,57298.66
2023-03-08T19:10:33.315Z,57292.30
2023-03-08T19:13:17.034Z,57299.72
2023-03-08T19:15:58.075Z,57303.95
2023-03-08T19:18:29.213Z,57303.95
2023-03-08T19:21:00.549Z,57288.07
2023-03-08T19:23:31.268Z,57316.66
2023-03-08T19:26:01.804Z,57313.48
2023-03-08T19:28:32.814Z,57281.71
2023-03-08T19:31:05.911Z,57295.48
2023-03-08T19:33:38.775Z,57295.48
2023-03-08T19:39:23.900Z,57273.24
2023-03-08T19:41:57.880Z,57281.71
2023-03-08T19:44:38.017Z,57291.25
2023-03-08T19:47:13.582Z,57301.84
2023-03-08T19:49:48.867Z,57274.30
2023-03-08T19:52:20.989Z,57290.18
2023-03-08T19:54:51.698Z,57297.60
2023-03-08T19:57:26.714Z,57297.60
2023-03-08T20:00:02.307Z,57281.71
2023-03-08T20:02:42.141Z,57281.71
2023-03-08T20:05:13.142Z,57284.89
2023-03-08T20:07:44.193Z,57306.07
2023-03-08T20:10:17.337Z,57313.48
2023-03-08T20:12:50.212Z,57270.06
2023-03-08T20:15:22.908Z,57270.06
2023-03-08T20:17:58.002Z,57295.48
2023-03-08T20:20:28.675Z,57274.30
2023-03-08T20:22:59.447Z,57274.30
2023-03-08T20:25:31.353Z,57282.77
2023-03-08T20:28:09.734Z,57291.25
2023-03-08T20:30:43.413Z,57293.36
2023-03-08T20:33:17.394Z,57305.01
2023-03-08T20:35:58.920Z,57289.13
2023-03-08T20:38:30.149Z,57269.00
2023-03-08T20:41:06.105Z,57276.42
2023-03-08T20:43:37.303Z,57275.36
2023-03-08T20:46:09.690Z,57301.84
2023-03-08T20:48:46.537Z,57303.95
2023-03-08T20:51:19.841Z,57295.48
2023-03-08T20:53:52.830Z,57303.95
2023-03-08T21:02:33.663Z,57280.66
2023-03-08T21:05:12.186Z,57282.77
2023-03-08T21:07:43.624Z,57299.72
2023-03-08T21:10:16.876Z,57289.13
2023-03-08T21:12:48.675Z,57264.77
2023-03-08T21:15:19.771Z,57264.77
2023-03-08T21:17:59.284Z,57276.42
2023-03-08T21:20:29.991Z,57263.71
2023-03-08T21:23:00.964Z,57293.36
2023-03-08T21:25:39.491Z,57261.59
2023-03-08T21:28:18.898Z,57264.77
2023-03-08T21:30:53.127Z,57283.83
2023-03-08T21:33:25.063Z,57283.83
2023-03-08T21:35:57.166Z,57269.00
2023-03-08T21:38:29.154Z,57295.48
2023-03-08T21:41:00.140Z,57295.48
2023-03-08T21:43:30.822Z,57279.59
2023-03-08T21:46:03.512Z,57278.54
2023-03-08T21:48:35.614Z,57278.54
2023-03-08T21:51:08.168Z,57265.83
2023-03-08T21:53:41.334Z,57284.89
2023-03-08T21:56:14.171Z,57284.89
2023-03-08T21:58:47.433Z,57285.95
2023-03-08T22:01:31.577Z,57285.95
2023-03-08T22:04:05.638Z,57265.83
2023-03-08T22:06:38.788Z,57270.06
2023-03-08T22:09:13.621Z,57243.59
2023-03-08T22:14:55.913Z,57267.95
2023-03-08T22:17:27.648Z,57258.41
2023-03-08T22:19:58.394Z,57258.41
2023-03-08T22:22:29.414Z,57277.48
2023-03-08T22:24:59.950Z,57306.07
2023-03-08T22:27:34.375Z,57276.42
2023-03-08T22:30:13.448Z,57276.42
2023-03-08T22:32:44.197Z,57302.89
2023-03-08T22:35:15.830Z,57227.70
2023-03-08T22:37:47.261Z,57291.25
2023-03-08T22:40:18.279Z,57273.24
2023-03-08T22:42:49.729Z,57251.00
2023-03-08T22:45:22.374Z,57278.54
2023-03-08T22:47:54.770Z,57258.41
2023-03-08T22:50:25.637Z,57270.06
2023-03-08T22:52:56.100Z,57278.54
2023-03-08T22:55:28.304Z,57292.30
2023-03-08T22:58:01.406Z,57292.30
2023-03-08T23:00:31.973Z,57256.30
2023-03-08T23:03:02.582Z,57265.83
2023-03-08T23:05:33.544Z,57280.66
2023-03-08T23:08:04.542Z,57282.77
2023-03-08T23:10:36.334Z,57281.71
2023-03-08T23:13:06.868Z,57287.01
2023-03-08T23:15:37.300Z,57276.42
2023-03-08T23:18:19.970Z,57291.25
2023-03-08T23:20:50.553Z,57272.18
2023-03-08T23:23:20.891Z,57263.71
2023-03-08T23:25:52.078Z,57263.71
2023-03-08T23:28:22.703Z,57261.59
2023-03-08T23:30:54.267Z,57273.24
2023-03-08T23:33:25.939Z,57297.60
2023-03-08T23:35:56.272Z,57290.18
2023-03-08T23:38:26.681Z,57266.89
2023-03-08T23:40:57.616Z,57259.47
2023-03-08T23:43:28.075Z,57284.89
2023-03-08T23:45:58.557Z,57278.54
2023-03-08T23:48:29.430Z,57284.89
2023-03-08T23:50:59.825Z,57281.71
2023-03-08T23:53:30.233Z,57292.30
2023-03-08T23:56:01.774Z,57265.83
2023-03-08T23:58:32.905Z,57255.24
